Ken Jones Airport


Codes: MKKJ/POT
Name: Ken Jones Airport
City: Ken Jones
Country: Jamaica
Elevation: 20 ft.
Wikipedia:

Photos at Ken Jones Airport


   Photos courtesy of SpottingLog. You can add your own sightings and photos by signing up for a free trial today.



No photos found.

Weather at Ken Jones Airport


Time (UTC)DescriptionTempratureWindCloud coverageVisibilityPressureHumidity
13-Jun-2024 03:00Light Rain27°C11 mph, SE68%10000m1014hPa90%
13-Jun-2024 06:00Light Rain27°C9 mph, SE78%10000m1014hPa91%
13-Jun-2024 09:00Light Rain26°C9 mph, SE99%10000m1013hPa91%
13-Jun-2024 12:00Overcast Clouds27°C9 mph, SE99%10000m1015hPa86%
13-Jun-2024 15:00Light Rain30°C11 mph, SE94%10000m1015hPa69%
13-Jun-2024 18:00Overcast Clouds31°C13 mph, E91%10000m1014hPa65%
13-Jun-2024 21:00Overcast Clouds30°C11 mph, E89%10000m1013hPa70%
14-Jun-2024 00:00Overcast Clouds27°C9 mph, SE88%10000m1014hPa88%
14-Jun-2024 03:00Scattered Clouds26°C9 mph, SE40%10000m1015hPa89%
14-Jun-2024 06:00Scattered Clouds25°C9 mph, SE37%10000m1013hPa84%
14-Jun-2024 09:00Few Clouds26°C7 mph, SE16%10000m1013hPa87%
14-Jun-2024 12:00Scattered Clouds27°C9 mph, SE28%10000m1014hPa80%
14-Jun-2024 15:00Few Clouds30°C9 mph, SE18%10000m1014hPa70%
14-Jun-2024 18:00Few Clouds31°C13 mph, E21%10000m1013hPa63%
14-Jun-2024 21:00Broken Clouds31°C13 mph, E56%10000m1011hPa68%
15-Jun-2024 00:00Broken Clouds27°C9 mph, SE76%10000m1012hPa87%
15-Jun-2024 03:00Broken Clouds26°C7 mph, SE71%10000m1014hPa88%
15-Jun-2024 06:00Broken Clouds26°C7 mph, SE71%10000m1013hPa89%
15-Jun-2024 09:00Overcast Clouds26°C9 mph, SE100%10000m1013hPa91%
15-Jun-2024 12:00Overcast Clouds27°C9 mph, SE98%10000m1014hPa84%
15-Jun-2024 15:00Overcast Clouds31°C11 mph, E91%10000m1014hPa66%
15-Jun-2024 18:00Broken Clouds32°C13 mph, E70%10000m1013hPa62%
15-Jun-2024 21:00Overcast Clouds30°C13 mph, SE100%10000m1011hPa67%
16-Jun-2024 00:00Overcast Clouds27°C11 mph, SE96%10000m1013hPa86%
16-Jun-2024 03:00Scattered Clouds26°C9 mph, SE34%10000m1014hPa89%
16-Jun-2024 06:00Scattered Clouds25°C9 mph, SE46%10000m1014hPa88%
16-Jun-2024 09:00Overcast Clouds26°C9 mph, SE100%10000m1013hPa87%
16-Jun-2024 12:00Overcast Clouds27°C9 mph, SE100%10000m1014hPa82%
16-Jun-2024 15:00Light Rain30°C11 mph, E99%10000m1014hPa68%
16-Jun-2024 18:00Overcast Clouds31°C13 mph, E99%10000m1013hPa66%
16-Jun-2024 21:00Light Rain30°C13 mph, SE100%10000m1012hPa75%
17-Jun-2024 00:00Light Rain27°C11 mph, SE100%10000m1013hPa89%
17-Jun-2024 03:00Light Rain26°C9 mph, SE100%10000m1015hPa91%
17-Jun-2024 06:00Light Rain26°C9 mph, SE100%10000m1013hPa91%
17-Jun-2024 09:00Light Rain26°C9 mph, SE100%10000m1013hPa91%
17-Jun-2024 12:00Light Rain27°C9 mph, SE100%10000m1014hPa89%
17-Jun-2024 15:00Light Rain29°C11 mph, SE100%10000m1014hPa79%
17-Jun-2024 18:00Light Rain29°C11 mph, SE99%10000m1013hPa76%
17-Jun-2024 21:00Light Rain29°C11 mph, SE100%10000m1012hPa71%
18-Jun-2024 00:00Overcast Clouds26°C9 mph, SE100%10000m1013hPa85%